Terminal Aerodrome Forecast
Issued by NWS

Home | Current Version | Previous Version | Text Only | Print | Product List | Glossary On
Versions: 1 2 3 4 5 6 7 8 9 10 11 12 13 14 15 16 17 18 19 20 21 22 23 24 25 26 27 28 29 30 31 32
000
FTUS41 KBOX 241728
TAFFMH
TAF
KFMH 241728Z 2418/2518 05005KT P6SM SKC
     FM250100 VRB03KT 5SM BR BKN003
     FM250300 00000KT 1/2SM FG OVC003
     FM251300 06004KT 1SM BR BKN003
     FM251500 08006KT 3SM BR SCT008
     FM251600 08007KT P6SM SCT250=

USA.gov is the U.S. government's official web portal to all federal, state and local government web resources and services.